sensor_id;sensor_type;location;lat;lon;timestamp;pressure;altitude;pressure_sealevel;temperature;humidity
61900;BME280;47853;55.890;37.664;2023-07-28T00:01:23;97750.88;;;28.92;100.00
61900;BME280;47853;55.890;37.664;2023-07-28T00:03:49;97744.19;;;28.81;100.00
61900;BME280;47853;55.890;37.664;2023-07-28T00:06:14;97779.13;;;28.49;100.00
61900;BME280;47853;55.890;37.664;2023-07-28T00:08:39;97787.25;;;28.19;100.00
61900;BME280;47853;55.890;37.664;2023-07-28T00:11:11;97789.75;;;28.42;100.00
61900;BME280;47853;55.890;37.664;2023-07-28T00:13:37;97799.56;;;27.46;100.00
61900;BME280;47853;55.890;37.664;2023-07-28T00:16:02;97799.59;;;28.07;100.00
61900;BME280;47853;55.890;37.664;2023-07-28T00:18:27;97793.97;;;27.51;100.00
61900;BME280;47853;55.890;37.664;2023-07-28T00:20:53;97811.13;;;27.52;100.00
61900;BME280;47853;55.890;37.664;2023-07-28T00:23:18;97798.00;;;27.80;100.00
61900;BME280;47853;55.890;37.664;2023-07-28T00:25:43;97800.25;;;27.87;100.00
61900;BME280;47853;55.890;37.664;2023-07-28T00:28:09;97815.97;;;27.72;100.00
61900;BME280;47853;55.890;37.664;2023-07-28T00:30:34;97819.56;;;27.41;100.00
61900;BME280;47853;55.890;37.664;2023-07-28T00:32:59;97820.94;;;27.12;100.00
61900;BME280;47853;55.890;37.664;2023-07-28T00:35:25;97811.78;;;26.99;100.00
61900;BME280;47853;55.890;37.664;2023-07-28T00:37:50;97816.78;;;27.15;100.00
61900;BME280;47853;55.890;37.664;2023-07-28T00:40:15;97824.78;;;27.11;100.00
61900;BME280;47853;55.890;37.664;2023-07-28T00:45:57;97790.16;;;27.03;100.00
61900;BME280;47853;55.890;37.664;2023-07-28T00:48:23;97833.84;;;27.38;100.00
61900;BME280;47853;55.890;37.664;2023-07-28T00:50:52;97784.19;;;26.92;100.00
61900;BME280;47853;55.890;37.664;2023-07-28T00:53:19;97774.28;;;26.96;100.00
61900;BME280;47853;55.890;37.664;2023-07-28T00:56:11;97810.41;;;27.19;100.00
61900;BME280;47853;55.890;37.664;2023-07-28T00:58:36;97783.16;;;27.28;100.00
61900;BME280;47853;55.890;37.664;2023-07-28T01:01:02;97760.53;;;26.38;100.00
61900;BME280;47853;55.890;37.664;2023-07-28T01:03:27;97776.41;;;26.76;100.00
61900;BME280;47853;55.890;37.664;2023-07-28T01:09:03;97797.03;;;27.67;100.00
61900;BME280;47853;55.890;37.664;2023-07-28T01:11:30;97793.69;;;27.70;100.00
61900;BME280;47853;55.890;37.664;2023-07-28T01:13:58;97767.09;;;27.09;100.00
61900;BME280;47853;55.890;37.664;2023-07-28T01:16:24;97769.06;;;28.41;100.00
61900;BME280;47853;55.890;37.664;2023-07-28T01:18:52;97776.41;;;28.49;100.00
61900;BME280;47853;55.890;37.664;2023-07-28T01:21:21;97774.56;;;28.23;100.00
61900;BME280;47853;55.890;37.664;2023-07-28T01:24:01;97788.72;;;28.73;100.00
61900;BME280;47853;55.890;37.664;2023-07-28T01:26:33;97769.13;;;28.71;100.00
61900;BME280;47853;55.890;37.664;2023-07-28T01:29:00;97768.66;;;29.59;100.00
61900;BME280;47853;55.890;37.664;2023-07-28T01:31:25;97776.25;;;29.02;100.00
61900;BME280;47853;55.890;37.664;2023-07-28T01:33:51;97790.47;;;29.46;100.00
61900;BME280;47853;55.890;37.664;2023-07-28T01:36:16;97769.97;;;29.31;100.00
61900;BME280;47853;55.890;37.664;2023-07-28T01:38:41;97780.59;;;29.54;100.00
61900;BME280;47853;55.890;37.664;2023-07-28T01:41:07;97776.78;;;29.16;100.00
61900;BME280;47853;55.890;37.664;2023-07-28T01:43:32;97775.63;;;29.26;100.00
61900;BME280;47853;55.890;37.664;2023-07-28T01:45:57;97768.13;;;29.87;100.00
61900;BME280;47853;55.890;37.664;2023-07-28T01:48:23;97749.75;;;29.87;100.00
61900;BME280;47853;55.890;37.664;2023-07-28T01:50:48;97747.34;;;29.22;100.00
61900;BME280;47853;55.890;37.664;2023-07-28T01:53:13;97759.47;;;29.12;100.00
61900;BME280;47853;55.890;37.664;2023-07-28T01:55:39;97759.19;;;29.56;100.00
61900;BME280;47853;55.890;37.664;2023-07-28T01:58:04;97761.28;;;29.29;100.00
61900;BME280;47853;55.890;37.664;2023-07-28T02:00:30;97737.94;;;28.72;100.00
61900;BME280;47853;55.890;37.664;2023-07-28T02:02:55;97745.25;;;28.98;100.00
61900;BME280;47853;55.890;37.664;2023-07-28T02:05:21;97745.13;;;29.45;100.00
61900;BME280;47853;55.890;37.664;2023-07-28T02:07:46;97756.53;;;29.69;100.00
61900;BME280;47853;55.890;37.664;2023-07-28T02:10:12;97749.66;;;29.62;100.00
61900;BME280;47853;55.890;37.664;2023-07-28T02:12:38;97744.03;;;29.37;100.00
61900;BME280;47853;55.890;37.664;2023-07-28T02:15:05;97760.41;;;29.16;100.00
61900;BME280;47853;55.890;37.664;2023-07-28T02:17:30;97758.88;;;28.59;100.00
61900;BME280;47853;55.890;37.664;2023-07-28T02:19:56;97751.47;;;29.07;100.00
61900;BME280;47853;55.890;37.664;2023-07-28T02:22:21;97750.78;;;29.10;100.00
61900;BME280;47853;55.890;37.664;2023-07-28T02:24:47;97742.47;;;28.68;100.00
61900;BME280;47853;55.890;37.664;2023-07-28T02:27:12;97720.44;;;29.54;100.00
61900;BME280;47853;55.890;37.664;2023-07-28T02:29:37;97736.00;;;29.62;100.00
61900;BME280;47853;55.890;37.664;2023-07-28T02:32:03;97750.19;;;29.56;100.00
61900;BME280;47853;55.890;37.664;2023-07-28T02:34:28;97753.88;;;29.30;100.00
61900;BME280;47853;55.890;37.664;2023-07-28T02:36:54;97762.94;;;29.21;100.00
61900;BME280;47853;55.890;37.664;2023-07-28T02:39:19;97773.63;;;29.05;100.00
61900;BME280;47853;55.890;37.664;2023-07-28T02:41:44;97754.97;;;28.30;100.00
61900;BME280;47853;55.890;37.664;2023-07-28T02:44:10;97762.63;;;28.45;100.00
61900;BME280;47853;55.890;37.664;2023-07-28T02:46:35;97770.72;;;28.80;100.00
61900;BME280;47853;55.890;37.664;2023-07-28T02:49:02;97758.00;;;29.36;100.00
61900;BME280;47853;55.890;37.664;2023-07-28T02:51:28;97775.13;;;28.55;100.00
61900;BME280;47853;55.890;37.664;2023-07-28T02:53:53;97791.75;;;28.71;100.00
61900;BME280;47853;55.890;37.664;2023-07-28T02:56:18;97804.06;;;26.70;100.00
61900;BME280;47853;55.890;37.664;2023-07-28T02:58:44;97797.16;;;26.95;100.00
61900;BME280;47853;55.890;37.664;2023-07-28T03:01:09;97791.94;;;27.07;100.00
61900;BME280;47853;55.890;37.664;2023-07-28T03:03:34;97801.72;;;26.77;100.00
61900;BME280;47853;55.890;37.664;2023-07-28T03:06:00;97787.41;;;26.31;100.00
61900;BME280;47853;55.890;37.664;2023-07-28T03:08:25;97801.47;;;26.87;100.00
61900;BME280;47853;55.890;37.664;2023-07-28T03:10:56;97788.09;;;27.09;100.00
61900;BME280;47853;55.890;37.664;2023-07-28T03:13:21;97786.63;;;27.11;100.00
61900;BME280;47853;55.890;37.664;2023-07-28T03:15:46;97761.06;;;27.47;100.00
61900;BME280;47853;55.890;37.664;2023-07-28T03:18:12;97760.31;;;27.73;100.00
61900;BME280;47853;55.890;37.664;2023-07-28T03:20:37;97768.50;;;27.73;100.00
61900;BME280;47853;55.890;37.664;2023-07-28T03:23:02;97802.91;;;27.34;100.00
61900;BME280;47853;55.890;37.664;2023-07-28T03:25:28;97830.97;;;27.43;100.00
61900;BME280;47853;55.890;37.664;2023-07-28T03:27:53;97850.16;;;27.20;100.00
61900;BME280;47853;55.890;37.664;2023-07-28T03:30:28;97847.19;;;26.99;100.00
61900;BME280;47853;55.890;37.664;2023-07-28T03:32:53;97823.81;;;26.75;100.00
61900;BME280;47853;55.890;37.664;2023-07-28T03:35:21;97798.28;;;26.31;100.00
61900;BME280;47853;55.890;37.664;2023-07-28T03:37:52;97807.91;;;26.91;100.00
61900;BME280;47853;55.890;37.664;2023-07-28T03:40:27;97785.97;;;27.90;100.00
61900;BME280;47853;55.890;37.664;2023-07-28T03:42:53;97768.47;;;27.56;100.00
61900;BME280;47853;55.890;37.664;2023-07-28T03:45:19;97803.69;;;27.34;100.00
61900;BME280;47853;55.890;37.664;2023-07-28T03:50:44;97844.81;;;27.06;100.00
61900;BME280;47853;55.890;37.664;2023-07-28T03:53:28;97896.41;;;25.84;100.00
61900;BME280;47853;55.890;37.664;2023-07-28T03:56:30;97932.59;;;26.35;100.00
61900;BME280;47853;55.890;37.664;2023-07-28T03:58:56;97970.13;;;25.82;100.00
61900;BME280;47853;55.890;37.664;2023-07-28T04:01:24;97941.34;;;24.92;100.00
61900;BME280;47853;55.890;37.664;2023-07-28T04:03:49;98002.47;;;24.32;100.00
61900;BME280;47853;55.890;37.664;2023-07-28T04:06:15;98061.56;;;23.86;100.00
61900;BME280;47853;55.890;37.664;2023-07-28T04:08:40;97988.28;;;22.39;100.00
61900;BME280;47853;55.890;37.664;2023-07-28T04:11:06;97975.75;;;22.58;100.00
61900;BME280;47853;55.890;37.664;2023-07-28T04:13:33;97966.13;;;23.41;100.00
61900;BME280;47853;55.890;37.664;2023-07-28T04:15:59;97918.38;;;23.26;100.00
61900;BME280;47853;55.890;37.664;2023-07-28T04:18:25;97846.81;;;24.14;100.00
61900;BME280;47853;55.890;37.664;2023-07-28T04:20:50;97784.06;;;24.96;100.00
61900;BME280;47853;55.890;37.664;2023-07-28T04:23:15;97760.84;;;25.03;100.00
61900;BME280;47853;55.890;37.664;2023-07-28T04:25:41;97721.31;;;25.62;100.00
61900;BME280;47853;55.890;37.664;2023-07-28T04:28:06;97703.63;;;24.58;100.00
61900;BME280;47853;55.890;37.664;2023-07-28T04:30:31;97705.00;;;23.61;100.00
61900;BME280;47853;55.890;37.664;2023-07-28T04:32:57;97683.50;;;23.84;100.00
61900;BME280;47853;55.890;37.664;2023-07-28T04:35:22;97675.28;;;24.50;100.00
61900;BME280;47853;55.890;37.664;2023-07-28T04:37:47;97670.78;;;24.31;100.00
61900;BME280;47853;55.890;37.664;2023-07-28T04:40:13;97668.50;;;23.92;100.00
61900;BME280;47853;55.890;37.664;2023-07-28T04:42:38;97715.78;;;24.46;100.00
61900;BME280;47853;55.890;37.664;2023-07-28T04:45:04;97718.34;;;24.85;100.00
61900;BME280;47853;55.890;37.664;2023-07-28T04:47:29;97716.50;;;24.66;100.00
61900;BME280;47853;55.890;37.664;2023-07-28T04:49:54;97724.81;;;24.42;100.00
61900;BME280;47853;55.890;37.664;2023-07-28T04:52:20;97737.59;;;24.41;100.00
61900;BME280;47853;55.890;37.664;2023-07-28T04:54:45;97736.00;;;25.24;100.00
61900;BME280;47853;55.890;37.664;2023-07-28T04:57:10;97717.13;;;25.05;100.00
61900;BME280;47853;55.890;37.664;2023-07-28T04:59:36;97704.66;;;24.90;100.00
61900;BME280;47853;55.890;37.664;2023-07-28T05:02:01;97720.84;;;24.95;100.00
61900;BME280;47853;55.890;37.664;2023-07-28T05:04:26;97712.31;;;25.02;100.00
61900;BME280;47853;55.890;37.664;2023-07-28T05:06:52;97718.53;;;24.88;100.00
61900;BME280;47853;55.890;37.664;2023-07-28T05:09:17;97731.88;;;24.71;100.00
61900;BME280;47853;55.890;37.664;2023-07-28T05:11:42;97728.16;;;24.95;100.00
61900;BME280;47853;55.890;37.664;2023-07-28T05:14:08;97730.09;;;25.59;100.00
61900;BME280;47853;55.890;37.664;2023-07-28T05:16:33;97734.09;;;25.61;100.00
61900;BME280;47853;55.890;37.664;2023-07-28T05:18:58;97739.31;;;25.72;100.00
61900;BME280;47853;55.890;37.664;2023-07-28T05:21:24;97739.63;;;25.19;100.00
61900;BME280;47853;55.890;37.664;2023-07-28T05:23:49;97743.19;;;25.43;100.00
61900;BME280;47853;55.890;37.664;2023-07-28T05:26:14;97757.75;;;26.20;100.00
61900;BME280;47853;55.890;37.664;2023-07-28T05:28:40;97755.66;;;26.26;100.00
61900;BME280;47853;55.890;37.664;2023-07-28T05:31:05;97757.78;;;26.06;100.00
61900;BME280;47853;55.890;37.664;2023-07-28T05:33:31;97773.94;;;26.26;100.00
61900;BME280;47853;55.890;37.664;2023-07-28T05:36:03;97781.28;;;24.07;100.00
61900;BME280;47853;55.890;37.664;2023-07-28T05:38:29;97780.28;;;24.83;100.00
61900;BME280;47853;55.890;37.664;2023-07-28T05:40:58;97778.25;;;25.16;100.00
61900;BME280;47853;55.890;37.664;2023-07-28T05:43:23;97784.91;;;25.10;100.00
61900;BME280;47853;55.890;37.664;2023-07-28T05:45:49;97791.72;;;24.32;100.00
61900;BME280;47853;55.890;37.664;2023-07-28T05:48:14;97784.56;;;24.70;100.00
61900;BME280;47853;55.890;37.664;2023-07-28T05:50:39;97797.25;;;24.74;100.00
61900;BME280;47853;55.890;37.664;2023-07-28T05:53:05;97792.19;;;24.21;100.00
61900;BME280;47853;55.890;37.664;2023-07-28T05:55:30;97789.41;;;25.80;100.00
61900;BME280;47853;55.890;37.664;2023-07-28T05:57:55;97781.06;;;25.76;100.00
61900;BME280;47853;55.890;37.664;2023-07-28T06:00:21;97774.69;;;25.44;100.00
61900;BME280;47853;55.890;37.664;2023-07-28T06:02:46;97785.94;;;26.56;100.00
61900;BME280;47853;55.890;37.664;2023-07-28T06:05:11;97767.72;;;26.66;100.00
61900;BME280;47853;55.890;37.664;2023-07-28T06:07:37;97779.16;;;26.45;100.00
61900;BME280;47853;55.890;37.664;2023-07-28T06:10:02;97781.44;;;25.32;100.00
61900;BME280;47853;55.890;37.664;2023-07-28T06:12:27;97785.97;;;25.51;100.00
61900;BME280;47853;55.890;37.664;2023-07-28T06:14:53;97791.44;;;25.09;100.00
61900;BME280;47853;55.890;37.664;2023-07-28T06:17:18;97798.31;;;25.57;100.00
61900;BME280;47853;55.890;37.664;2023-07-28T06:19:43;97812.38;;;25.73;100.00
61900;BME280;47853;55.890;37.664;2023-07-28T06:22:09;97792.66;;;26.27;100.00
61900;BME280;47853;55.890;37.664;2023-07-28T06:24:34;97800.91;;;25.62;100.00
61900;BME280;47853;55.890;37.664;2023-07-28T06:26:59;97789.41;;;26.02;100.00
61900;BME280;47853;55.890;37.664;2023-07-28T06:29:25;97776.09;;;26.46;100.00
61900;BME280;47853;55.890;37.664;2023-07-28T06:31:50;97775.72;;;26.30;100.00
61900;BME280;47853;55.890;37.664;2023-07-28T06:34:15;97788.72;;;26.33;100.00
61900;BME280;47853;55.890;37.664;2023-07-28T06:36:41;97784.06;;;27.06;100.00
61900;BME280;47853;55.890;37.664;2023-07-28T06:39:06;97787.09;;;26.96;100.00
61900;BME280;47853;55.890;37.664;2023-07-28T06:41:31;97808.75;;;27.94;100.00
61900;BME280;47853;55.890;37.664;2023-07-28T06:43:57;97815.72;;;27.25;100.00
61900;BME280;47853;55.890;37.664;2023-07-28T06:46:22;97825.88;;;27.50;100.00
61900;BME280;47853;55.890;37.664;2023-07-28T06:48:47;97861.06;;;26.89;100.00
61900;BME280;47853;55.890;37.664;2023-07-28T06:51:13;97908.41;;;26.33;100.00
61900;BME280;47853;55.890;37.664;2023-07-28T06:53:38;97944.25;;;25.43;100.00
61900;BME280;47853;55.890;37.664;2023-07-28T06:56:04;97988.22;;;24.98;100.00
61900;BME280;47853;55.890;37.664;2023-07-28T06:58:29;98026.88;;;24.70;100.00
61900;BME280;47853;55.890;37.664;2023-07-28T07:00:54;98085.16;;;23.86;100.00
61900;BME280;47853;55.890;37.664;2023-07-28T07:03:20;98059.50;;;23.14;100.00
61900;BME280;47853;55.890;37.664;2023-07-28T07:05:45;98070.53;;;23.23;100.00
61900;BME280;47853;55.890;37.664;2023-07-28T07:08:10;98017.47;;;23.22;100.00
61900;BME280;47853;55.890;37.664;2023-07-28T07:10:36;97989.84;;;23.20;100.00
61900;BME280;47853;55.890;37.664;2023-07-28T07:13:01;97965.50;;;23.73;100.00
61900;BME280;47853;55.890;37.664;2023-07-28T07:15:26;97939.38;;;23.34;100.00
61900;BME280;47853;55.890;37.664;2023-07-28T07:17:52;97890.53;;;23.44;100.00
61900;BME280;47853;55.890;37.664;2023-07-28T07:20:17;97879.00;;;23.77;100.00
61900;BME280;47853;55.890;37.664;2023-07-28T07:22:42;97869.66;;;24.08;100.00
61900;BME280;47853;55.890;37.664;2023-07-28T07:25:08;97864.03;;;24.04;100.00
61900;BME280;47853;55.890;37.664;2023-07-28T07:27:33;97868.47;;;24.99;100.00
61900;BME280;47853;55.890;37.664;2023-07-28T07:29:58;97873.72;;;25.66;100.00
61900;BME280;47853;55.890;37.664;2023-07-28T07:32:24;97877.34;;;25.61;100.00
61900;BME280;47853;55.890;37.664;2023-07-28T07:34:49;97849.84;;;25.62;100.00
61900;BME280;47853;55.890;37.664;2023-07-28T07:37:15;97826.09;;;26.82;100.00
61900;BME280;47853;55.890;37.664;2023-07-28T07:39:40;97808.44;;;27.11;100.00
61900;BME280;47853;55.890;37.664;2023-07-28T07:42:06;97801.44;;;27.28;100.00
61900;BME280;47853;55.890;37.664;2023-07-28T07:44:31;97818.06;;;27.09;100.00
61900;BME280;47853;55.890;37.664;2023-07-28T07:47:00;97849.53;;;27.32;100.00
61900;BME280;47853;55.890;37.664;2023-07-28T07:49:25;97846.97;;;26.64;100.00
61900;BME280;47853;55.890;37.664;2023-07-28T07:51:50;97858.88;;;25.86;100.00
61900;BME280;47853;55.890;37.664;2023-07-28T07:54:16;97838.47;;;26.57;100.00
61900;BME280;47853;55.890;37.664;2023-07-28T07:56:41;97850.25;;;26.29;100.00
61900;BME280;47853;55.890;37.664;2023-07-28T07:59:07;97850.25;;;26.75;100.00
61900;BME280;47853;55.890;37.664;2023-07-28T08:01:32;97848.03;;;26.54;100.00
61900;BME280;47853;55.890;37.664;2023-07-28T08:03:58;97856.03;;;25.91;100.00
61900;BME280;47853;55.890;37.664;2023-07-28T08:06:23;97857.75;;;26.24;100.00
61900;BME280;47853;55.890;37.664;2023-07-28T08:08:48;97870.19;;;26.16;100.00
61900;BME280;47853;55.890;37.664;2023-07-28T08:11:14;97869.03;;;25.94;100.00
61900;BME280;47853;55.890;37.664;2023-07-28T08:13:39;97865.09;;;25.50;100.00
61900;BME280;47853;55.890;37.664;2023-07-28T08:16:05;97854.31;;;26.55;100.00
61900;BME280;47853;55.890;37.664;2023-07-28T08:18:30;97881.09;;;26.39;100.00
61900;BME280;47853;55.890;37.664;2023-07-28T08:20:55;97878.72;;;27.32;100.00
61900;BME280;47853;55.890;37.664;2023-07-28T08:23:20;97871.66;;;27.40;100.00
61900;BME280;47853;55.890;37.664;2023-07-28T08:25:48;97875.50;;;27.39;100.00
61900;BME280;47853;55.890;37.664;2023-07-28T08:28:14;97867.50;;;27.42;100.00
61900;BME280;47853;55.890;37.664;2023-07-28T08:30:54;97846.09;;;27.09;100.00
61900;BME280;47853;55.890;37.664;2023-07-28T08:33:19;97878.78;;;26.55;100.00
61900;BME280;47853;55.890;37.664;2023-07-28T08:35:47;97864.16;;;26.73;100.00
61900;BME280;47853;55.890;37.664;2023-07-28T08:38:12;97867.13;;;27.75;100.00
61900;BME280;47853;55.890;37.664;2023-07-28T08:40:40;97857.03;;;28.37;100.00
61900;BME280;47853;55.890;37.664;2023-07-28T08:43:06;97901.16;;;27.96;100.00
61900;BME280;47853;55.890;37.664;2023-07-28T08:45:31;97906.50;;;28.18;100.00
61900;BME280;47853;55.890;37.664;2023-07-28T08:47:57;97912.28;;;28.52;100.00
61900;BME280;47853;55.890;37.664;2023-07-28T08:50:22;97903.22;;;29.34;100.00
61900;BME280;47853;55.890;37.664;2023-07-28T08:52:47;97907.53;;;29.74;100.00
61900;BME280;47853;55.890;37.664;2023-07-28T08:55:13;97919.25;;;31.15;91.91
61900;BME280;47853;55.890;37.664;2023-07-28T08:57:38;97907.44;;;31.02;88.81
61900;BME280;47853;55.890;37.664;2023-07-28T09:00:10;97913.81;;;31.39;85.98
61900;BME280;47853;55.890;37.664;2023-07-28T09:02:36;97895.75;;;30.25;96.89
61900;BME280;47853;55.890;37.664;2023-07-28T09:05:02;97895.41;;;29.24;100.00
61900;BME280;47853;55.890;37.664;2023-07-28T09:07:34;97919.81;;;30.19;97.55
61900;BME280;47853;55.890;37.664;2023-07-28T09:09:59;97926.78;;;27.28;100.00
61900;BME280;47853;55.890;37.664;2023-07-28T09:12:25;97936.09;;;27.35;100.00
61900;BME280;47853;55.890;37.664;2023-07-28T09:14:55;97900.50;;;27.81;100.00
61900;BME280;47853;55.890;37.664;2023-07-28T09:17:21;97927.59;;;29.09;100.00
61900;BME280;47853;55.890;37.664;2023-07-28T09:19:54;97937.94;;;28.86;100.00
61900;BME280;47853;55.890;37.664;2023-07-28T09:22:23;97937.38;;;29.11;100.00
61900;BME280;47853;55.890;37.664;2023-07-28T09:24:51;97934.75;;;28.49;100.00
61900;BME280;47853;55.890;37.664;2023-07-28T09:29:54;97934.00;;;25.54;100.00
61900;BME280;47853;55.890;37.664;2023-07-28T09:32:30;97937.38;;;26.01;100.00
61900;BME280;47853;55.890;37.664;2023-07-28T09:35:06;97958.78;;;25.05;100.00
61900;BME280;47853;55.890;37.664;2023-07-28T09:37:31;97958.56;;;25.62;100.00
61900;BME280;47853;55.890;37.664;2023-07-28T09:39:58;97968.88;;;26.90;100.00
61900;BME280;47853;55.890;37.664;2023-07-28T09:42:23;97985.81;;;26.27;100.00
61900;BME280;47853;55.890;37.664;2023-07-28T09:44:49;98000.06;;;26.47;100.00
61900;BME280;47853;55.890;37.664;2023-07-28T09:47:14;98031.13;;;26.04;100.00
61900;BME280;47853;55.890;37.664;2023-07-28T09:49:41;98027.81;;;26.35;100.00
61900;BME280;47853;55.890;37.664;2023-07-28T09:52:12;98027.84;;;25.93;100.00
61900;BME280;47853;55.890;37.664;2023-07-28T09:54:40;98013.44;;;26.20;100.00
61900;BME280;47853;55.890;37.664;2023-07-28T09:57:10;98005.69;;;25.58;100.00
61900;BME280;47853;55.890;37.664;2023-07-28T09:59:41;98006.47;;;25.58;100.00
61900;BME280;47853;55.890;37.664;2023-07-28T10:02:16;97970.34;;;25.11;100.00
61900;BME280;47853;55.890;37.664;2023-07-28T10:04:42;98007.69;;;25.94;100.00
61900;BME280;47853;55.890;37.664;2023-07-28T10:07:08;97999.22;;;25.82;100.00
61900;BME280;47853;55.890;37.664;2023-07-28T10:09:34;97983.00;;;26.18;100.00
61900;BME280;47853;55.890;37.664;2023-07-28T10:12:00;97970.06;;;26.38;100.00
61900;BME280;47853;55.890;37.664;2023-07-28T10:14:29;97988.56;;;25.85;100.00
61900;BME280;47853;55.890;37.664;2023-07-28T10:16:56;97957.38;;;25.55;100.00
61900;BME280;47853;55.890;37.664;2023-07-28T10:19:31;97991.66;;;26.06;100.00
61900;BME280;47853;55.890;37.664;2023-07-28T10:22:09;97991.25;;;26.13;100.00
61900;BME280;47853;55.890;37.664;2023-07-28T10:30:55;98007.88;;;26.12;100.00
61900;BME280;47853;55.890;37.664;2023-07-28T10:33:40;97988.97;;;25.51;100.00
61900;BME280;47853;55.890;37.664;2023-07-28T10:36:38;97993.53;;;26.48;100.00
61900;BME280;47853;55.890;37.664;2023-07-28T10:39:22;97981.94;;;26.42;100.00
61900;BME280;47853;55.890;37.664;2023-07-28T10:45:00;97968.03;;;26.67;100.00
61900;BME280;47853;55.890;37.664;2023-07-28T10:47:38;97879.13;;;26.85;100.00
61900;BME280;47853;55.890;37.664;2023-07-28T10:50:05;97886.88;;;26.69;100.00
61900;BME280;47853;55.890;37.664;2023-07-28T10:55:20;97893.97;;;27.01;100.00
61900;BME280;47853;55.890;37.664;2023-07-28T10:57:48;97901.44;;;27.68;100.00
61900;BME280;47853;55.890;37.664;2023-07-28T11:00:22;97875.53;;;28.14;100.00
61900;BME280;47853;55.890;37.664;2023-07-28T11:02:56;97869.44;;;28.35;100.00
61900;BME280;47853;55.890;37.664;2023-07-28T11:08:58;97922.06;;;26.42;100.00
61900;BME280;47853;55.890;37.664;2023-07-28T11:11:47;97869.44;;;25.87;100.00
61900;BME280;47853;55.890;37.664;2023-07-28T11:14:17;97905.66;;;27.02;100.00
61900;BME280;47853;55.890;37.664;2023-07-28T11:16:46;97872.84;;;27.07;100.00
61900;BME280;47853;55.890;37.664;2023-07-28T11:19:12;97855.44;;;27.26;100.00
61900;BME280;47853;55.890;37.664;2023-07-28T11:21:44;97859.94;;;26.90;100.00
61900;BME280;47853;55.890;37.664;2023-07-28T11:27:32;97923.25;;;26.50;100.00
61900;BME280;47853;55.890;37.664;2023-07-28T11:29:57;97906.34;;;26.16;100.00
61900;BME280;47853;55.890;37.664;2023-07-28T11:32:30;97905.38;;;26.35;100.00
61900;BME280;47853;55.890;37.664;2023-07-28T11:35:05;97939.00;;;26.02;100.00
61900;BME280;47853;55.890;37.664;2023-07-28T11:37:32;97949.03;;;25.18;100.00
61900;BME280;47853;55.890;37.664;2023-07-28T11:40:00;97951.88;;;25.27;100.00
61900;BME280;47853;55.890;37.664;2023-07-28T11:42:29;97978.44;;;24.64;100.00
61900;BME280;47853;55.890;37.664;2023-07-28T11:44:58;98005.00;;;25.19;100.00
61900;BME280;47853;55.890;37.664;2023-07-28T11:47:24;97998.03;;;24.80;100.00
61900;BME280;47853;55.890;37.664;2023-07-28T11:49:49;98014.72;;;24.68;100.00
61900;BME280;47853;55.890;37.664;2023-07-28T11:52:17;97969.09;;;24.70;100.00
61900;BME280;47853;55.890;37.664;2023-07-28T11:54:43;97959.38;;;25.16;100.00
61900;BME280;47853;55.890;37.664;2023-07-28T11:57:09;97978.16;;;24.98;100.00
61900;BME280;47853;55.890;37.664;2023-07-28T11:59:48;97953.50;;;25.84;100.00
61900;BME280;47853;55.890;37.664;2023-07-28T12:02:13;97980.72;;;25.56;100.00
61900;BME280;47853;55.890;37.664;2023-07-28T12:04:43;97964.38;;;25.42;100.00
61900;BME280;47853;55.890;37.664;2023-07-28T12:07:15;98010.84;;;24.74;100.00
61900;BME280;47853;55.890;37.664;2023-07-28T12:12:12;98005.16;;;25.56;100.00
61900;BME280;47853;55.890;37.664;2023-07-28T12:14:50;98022.53;;;25.08;100.00
61900;BME280;47853;55.890;37.664;2023-07-28T12:17:22;98041.81;;;25.86;100.00
61900;BME280;47853;55.890;37.664;2023-07-28T12:20:05;97996.50;;;25.82;100.00
61900;BME280;47853;55.890;37.664;2023-07-28T12:22:51;98050.19;;;25.90;100.00
61900;BME280;47853;55.890;37.664;2023-07-28T12:25:18;98031.97;;;25.29;100.00
61900;BME280;47853;55.890;37.664;2023-07-28T12:27:44;98046.19;;;25.07;100.00
61900;BME280;47853;55.890;37.664;2023-07-28T12:30:10;98015.22;;;25.55;100.00
61900;BME280;47853;55.890;37.664;2023-07-28T12:32:38;98038.72;;;24.60;100.00
61900;BME280;47853;55.890;37.664;2023-07-28T14:14:02;98057.63;;;24.66;100.00
61900;BME280;47853;55.890;37.664;2023-07-28T14:16:27;98006.09;;;25.79;100.00
61900;BME280;47853;55.890;37.664;2023-07-28T14:18:52;98022.97;;;25.48;100.00
61900;BME280;47853;55.890;37.664;2023-07-28T14:21:20;98022.16;;;25.61;100.00
61900;BME280;47853;55.890;37.664;2023-07-28T14:23:46;98015.66;;;26.18;100.00
61900;BME280;47853;55.890;37.664;2023-07-28T14:26:13;98006.25;;;26.11;100.00
61900;BME280;47853;55.890;37.664;2023-07-28T14:28:39;98031.88;;;26.24;100.00
61900;BME280;47853;55.890;37.664;2023-07-28T14:31:04;98036.38;;;26.28;100.00
61900;BME280;47853;55.890;37.664;2023-07-28T14:33:30;98017.50;;;26.46;100.00
61900;BME280;47853;55.890;37.664;2023-07-28T14:36:04;98081.19;;;26.59;100.00
61900;BME280;47853;55.890;37.664;2023-07-28T14:38:53;98049.22;;;27.01;100.00
61900;BME280;47853;55.890;37.664;2023-07-28T15:04:26;98087.56;;;28.22;100.00
61900;BME280;47853;55.890;37.664;2023-07-28T15:06:51;98079.63;;;28.12;100.00
61900;BME280;47853;55.890;37.664;2023-07-28T15:15:56;98112.72;;;28.69;100.00
61900;BME280;47853;55.890;37.664;2023-07-28T15:18:39;98144.19;;;28.57;100.00
61900;BME280;47853;55.890;37.664;2023-07-28T15:33:54;98148.25;;;27.19;100.00
61900;BME280;47853;55.890;37.664;2023-07-28T17:35:09;98198.84;;;25.42;100.00